METAR Reports From Nearby Airports

 

KLUD - Decatur, Texas, USA
Distance from Wildwood: WsPdWs 5mi, 8km
Aktualizacja: Nov 12, 2019 5:15am
Bezchmurnie
Bezchmurnie
 Wiatr z PnPnZd
Wiatr: PnPnZd 8 mph , 13 km/h
Temperatura: 19°F , -7°C
Wind Chill: 9°F , -13°C
Punkt Rosy: 9°F , -13°C
Wilgotność: 63%
Ciśnienie: 30.63 inHg , 1037.3 hPa
Clouds: Bezchmurnie
Visibility: 10 miles , 16 km
2019/11/12 11:15 KLUD 121115Z AUTO 34007KT 300V360 10SM CLR M07/M13 A3063 RMK AO2 T10661128
KXBP - Bridgeport, Texas, USA
Distance from Wildwood: ZdPdZa 11mi, 18km
Aktualizacja: Nov 12, 2019 5:15am
Bezchmurnie
Bezchmurnie
 Wiatr z Pn
Wiatr: Pn 14 mph , 22 km/h, Poryw: 23 mph , 37 km/h
Temperatura: 21°F , -6°C
Wind Chill: 8°F , -13°C
Punkt Rosy: 10°F , -12°C
Wilgotność: 63%
Ciśnienie: 30.69 inHg , 1039.3 hPa
Clouds: Bezchmurnie
Visibility: 10 miles , 16 km
2019/11/12 11:15 KXBP 121115Z AUTO 36012G20KT 330V030 10SM CLR M06/M12 A3069 RMK AO2 T10561120
 
K0F2 - Bowie, Texas, USA
Distance from Wildwood: PnPnZd 24mi, 39km
Aktualizacja: Nov 12, 2019 5:15am
Bezchmurnie
Bezchmurnie
 Wiatr z PnPnZd
Wiatr: PnPnZd 10 mph , 17 km/h
Temperatura: 21°F , -6°C
Wind Chill: 10°F , -12°C
Punkt Rosy: 14°F , -10°C
Wilgotność: 74%
Ciśnienie: 30.65 inHg , 1037.9 hPa
Clouds: Bezchmurnie
Visibility: 10 miles , 16 km
2019/11/12 11:15 K0F2 121115Z AUTO 34009KT 10SM CLR M06/M10 A3065 RMK AO2 T10601100
KDTO - Denton, Texas, USA
Distance from Wildwood: Ws 27mi, 44km
Aktualizacja: Nov 12, 2019 4:53am
Bezchmurnie
Bezchmurnie
 Wiatr z Pn
Wiatr: Pn 16 mph , 26 km/h
Temperatura: 21°F , -6°C
Wind Chill: 7°F , -14°C
Punkt Rosy: 10°F , -12°C
Wilgotność: 63%
Ciśnienie: 30.65 inHg , 1037.9 hPa
Clouds: Bezchmurnie
Visibility: 10 miles , 16 km
2019/11/12 10:53 KDTO 121053Z AUTO 35014KT 10SM CLR M06/M12 A3065 RMK AO2 SLP385 T10561117
 
KAFW - Ft Worth/Allianc, Texas, USA
Distance from Wildwood: PdWs 29mi, 46km
Aktualizacja: Nov 12, 2019 4:53am
Partly Cloudy
Partly Cloudy
 Wiatr z Pn
Wiatr: Pn 17 mph , 28 km/h
Temperatura: 23°F , -5°C
Wind Chill: 9°F , -13°C
Punkt Rosy: 10°F , -12°C
Wilgotność: 58%
Ciśnienie: 30.63 inHg , 1037.3 hPa
Clouds: Partly Cloudy
Visibility: 10 miles , 16 km
Cloud details: Few Clouds 25000 ft
Partly Cloudy 30000 ft
2019/11/12 10:53 KAFW 121053Z 36015KT 10SM FEW250 SCT300 M05/M12 A3063 RMK AO2 SLP388 T10501117
KFTW - Fort Worth, Texas, USA
Distance from Wildwood: PdPdWs 34mi, 55km
Aktualizacja: Nov 12, 2019 4:53am
Bezchmurnie
Bezchmurnie
 Wiatr z Pn
Wiatr: Pn 15 mph , 24 km/h, Poryw: 26 mph , 43 km/h
Temperatura: 21°F , -6°C
Wind Chill: 7°F , -14°C
Punkt Rosy: 10°F , -12°C
Wilgotność: 63%
Ciśnienie: 30.63 inHg , 1037.3 hPa
Clouds: Bezchmurnie
Visibility: 10 miles , 16 km
2019/11/12 10:53 KFTW 121053Z 35013G23KT 10SM CLR M06/M12 A3063 RMK AO2 PK WND 35029/0954 SLP380 T10561117
 
KNFW - Fort Worth Nas, Texas, USA
Distance from Wildwood: PdPdWs 36mi, 58km
Aktualizacja: Nov 12, 2019 4:52am
Light snow, Bezchmurnie
Light snow, Bezchmurnie
 Wiatr z Pn
Wiatr: Pn 16 mph , 26 km/h, Poryw: 23 mph , 37 km/h
Temperatura: 30°F , -1°C
Wind Chill: 19°F , -7°C
Punkt Rosy: 12°F , -11°C
Wilgotność: 47%
Ciśnienie: 30.66 inHg , 1038.3 hPa
Podsumowanie: Light Snow
Clouds: Bezchmurnie
Visibility: 9 miles , 14 km
2019/11/12 10:52 KNFW 121052Z AUTO 35014G20KT 9SM -SN CLR M01/M11 A3066 RMK AO2 SLP361 P0000 T10111106 CHINO N VISNO N $
KGLE - Gainesville, Texas, USA
Distance from Wildwood: PnWs 38mi, 61km
Aktualizacja: Nov 04, 2019 8:15am
NOT Current

 Wiatr z Pd
Wiatr: Pd 13 mph , 20 km/h, Poryw: 18 mph , 30 km/h
Temperatura: 54°F , 12°C
Punkt Rosy: 50°F , 10°C
Wilgotność: 88%
Ciśnienie: 30.00 inHg , 1015.9 hPa
Visibility: 10 miles , 16 km
2019/11/04 14:15 KGLE 041415Z AUTO 17011G16KT 10SM 12/10 A3000 RMK AO2 T01170100
 
KMWL - Mineral Wells, Texas, USA
Distance from Wildwood: PdZd 41mi, 65km
Aktualizacja: Nov 12, 2019 4:53am
Bezchmurnie
Bezchmurnie
 Wiatr z Pn
Wiatr: Pn 14 mph , 22 km/h
Temperatura: 21°F , -6°C
Wind Chill: 8°F , -13°C
Punkt Rosy: 9°F , -13°C
Wilgotność: 58%
Ciśnienie: 30.64 inHg , 1037.6 hPa
Clouds: Bezchmurnie
Visibility: 10 miles , 16 km
2019/11/12 10:53 KMWL 121053Z AUTO 35012KT 10SM CLR M06/M13 A3064 RMK AO2 SLP384 T10611128
KDFW - Dallas/Ft Worth, Texas, USA
Distance from Wildwood: WsPdWs 45mi, 73km
Aktualizacja: Nov 12, 2019 4:53am
Few Clouds
Few Clouds
 Wiatr z Pn
Wiatr: Pn 16 mph , 26 km/h
Temperatura: 23°F , -5°C
Wind Chill: 10°F , -12°C
Punkt Rosy: 12°F , -11°C
Wilgotność: 63%
Ciśnienie: 30.60 inHg , 1036.2 hPa
Clouds: Few Clouds
Visibility: 10 miles , 16 km
Cloud details: Few Clouds 30000 ft
2019/11/12 10:53 KDFW 121053Z 35014KT 10SM FEW300 M05/M11 A3060 RMK AO2 PK WND 36026/1016 SLP368 T10501111 $